Time;durP1;ratioP1;P1;durP2;ratioP2;P2;SDS_P1;SDS_P2;PMS_P1;PMS_P2;Temp;Humidity;BMP_temperature;BMP_pressure;BME280_temperature;BME280_humidity;BME280_pressure;Samples;Min_cycle;Max_cycle;Signal;HPM_P1;HPM_P2
2023/06/17 00:01:04;;;;;;;0.63;0.50;;;;;;;15.85;98.63;99600.03;4979986;28;20042;-94
2023/06/17 00:03:30;;;;;;;1.15;1.08;;;;;;;16.05;98.12;99624.53;4966564;28;20547;-94
2023/06/17 00:05:56;;;;;;;0.25;0.25;;;;;;;15.80;98.30;99597.94;4953347;28;20026;-94
2023/06/17 00:08:24;;;;;;;0.22;0.22;;;;;;;16.03;98.08;99629.06;4957834;28;20039;-93
2023/06/17 00:10:49;;;;;;;0.73;0.60;;;;;;;15.97;98.94;99625.41;4958293;28;20035;-93
2023/06/17 00:13:19;;;;;;;0.95;0.85;;;;;;;15.88;99.71;99625.50;4973811;28;20430;-94
2023/06/17 00:15:56;;;;;;;0.68;0.68;;;;;;;15.80;99.21;99614.72;4959314;28;20498;-94
2023/06/17 00:18:26;;;;;;;0.00;0.00;;;;;;;15.80;100.00;99617.50;4956618;28;20924;-93
2023/06/17 00:20:52;;;;;;;1.20;1.10;;;;;;;15.84;99.83;99634.09;4955926;28;20121;-93
2023/06/17 00:23:21;;;;;;;0.70;0.57;;;;;;;15.76;100.00;99619.72;4974815;28;20089;-88
2023/06/17 00:25:48;;;;;;;0.57;0.57;;;;;;;15.73;100.00;99631.84;4990110;28;20034;-89
2023/06/17 00:28:13;;;;;;;0.05;0.05;;;;;;;15.67;100.00;99605.06;4982737;28;20034;-89
2023/06/17 00:30:40;;;;;;;1.00;1.00;;;;;;;15.55;100.00;99604.09;4989136;28;20116;-90
2023/06/17 00:33:06;;;;;;;0.70;0.70;;;;;;;15.48;100.00;99595.31;4982976;28;20114;-89
2023/06/17 00:35:33;;;;;;;0.40;0.30;;;;;;;15.56;100.00;99625.22;4986716;28;20066;-94
2023/06/17 00:37:59;;;;;;;1.48;0.52;;;;;;;15.45;100.00;99608.19;4950321;28;20510;-93
2023/06/17 00:40:25;;;;;;;0.30;0.30;;;;;;;15.45;100.00;99615.84;4947593;28;20035;-95
2023/06/17 00:42:51;;;;;;;0.30;0.25;;;;;;;15.41;100.00;99618.78;4955213;28;20038;-95
2023/06/17 00:45:17;;;;;;;0.55;0.55;;;;;;;15.35;100.00;99623.53;4993335;28;20114;-94
2023/06/17 00:47:43;;;;;;;1.15;1.02;;;;;;;15.36;100.00;99633.44;4975347;28;20027;-93
2023/06/17 00:50:12;;;;;;;0.68;0.68;;;;;;;15.16;100.00;99613.75;4953956;28;20485;-95
2023/06/17 00:52:39;;;;;;;0.20;0.20;;;;;;;15.00;100.00;99584.25;4959158;28;20125;-89
2023/06/17 00:55:06;;;;;;;3.53;1.42;;;;;;;15.23;100.00;99632.94;4989289;28;20093;-89
2023/06/17 00:57:33;;;;;;;0.35;0.35;;;;;;;15.17;100.00;99615.28;4974697;28;20092;-89
2023/06/17 00:59:58;;;;;;;0.10;0.10;;;;;;;14.89;100.00;99584.78;4970090;28;20322;-90
2023/06/17 01:02:25;;;;;;;0.47;0.45;;;;;;;15.15;100.00;99623.38;5252107;22;20040;-88
2023/06/17 01:04:52;;;;;;;0.20;0.20;;;;;;;15.13;100.00;99617.50;5035045;23;20042;-91
2023/06/17 01:07:40;;;;;;;0.60;0.60;;;;;;;15.07;100.00;99611.81;4974407;28;20669;-91
2023/06/17 01:10:21;;;;;;;0.52;0.52;;;;;;;15.12;100.00;99616.75;4990888;28;20025;-91
2023/06/17 01:12:47;;;;;;;0.10;0.10;;;;;;;15.08;100.00;99598.63;4995083;28;20038;-90
2023/06/17 01:15:16;;;;;;;0.80;0.65;;;;;;;15.06;100.00;99609.50;4988307;28;20021;-91
2023/06/17 01:17:46;;;;;;;0.22;0.22;;;;;;;15.01;100.00;99602.53;4993383;28;20076;-90
2023/06/17 01:20:13;;;;;;;0.68;0.68;;;;;;;15.00;100.00;99608.63;4996278;28;20051;-91
2023/06/17 01:22:40;;;;;;;1.05;0.95;;;;;;;14.98;100.00;99605.50;4995178;28;20033;-90
2023/06/17 01:25:06;;;;;;;0.20;0.20;;;;;;;14.96;100.00;99605.25;5000689;28;20052;-90
2023/06/17 01:27:33;;;;;;;2.80;0.63;;;;;;;14.92;100.00;99602.63;4994231;28;20033;-90
2023/06/17 01:29:59;;;;;;;0.65;0.65;;;;;;;14.92;100.00;99611.75;5000268;28;20048;-90
2023/06/17 01:32:26;;;;;;;0.25;0.25;;;;;;;14.90;100.00;99617.06;5000401;28;20109;-91
2023/06/17 01:34:58;;;;;;;0.32;0.32;;;;;;;14.89;100.00;99621.09;4983644;28;20109;-91
2023/06/17 01:37:45;;;;;;;0.20;0.20;;;;;;;14.81;100.00;99619.91;5014309;28;20497;-90
2023/06/17 01:40:13;;;;;;;0.20;0.20;;;;;;;14.77;100.00;99610.94;4985630;28;20041;-90
2023/06/17 01:42:44;;;;;;;1.35;1.08;;;;;;;14.73;100.00;99617.94;4995701;28;20116;-91
2023/06/17 01:45:10;;;;;;;0.10;0.10;;;;;;;14.72;100.00;99610.84;4985691;28;20040;-91
2023/06/17 01:47:35;;;;;;;0.50;0.50;;;;;;;14.73;100.00;99624.31;4994346;28;20837;-91
2023/06/17 01:50:03;;;;;;;0.50;0.50;;;;;;;14.75;100.00;99619.03;5009452;28;20029;-91
2023/06/17 01:52:28;;;;;;;0.50;0.50;;;;;;;14.69;100.00;99608.97;4993725;28;20026;-92
2023/06/17 01:54:55;;;;;;;1.23;1.13;;;;;;;14.69;100.00;99606.97;4995929;28;20040;-91
2023/06/17 01:57:20;;;;;;;1.40;0.75;;;;;;;14.67;100.00;99609.47;4989947;28;20042;-90
2023/06/17 01:59:46;;;;;;;0.52;0.52;;;;;;;14.71;100.00;99621.22;4991958;28;20366;-90
2023/06/17 02:02:13;;;;;;;2.63;1.67;;;;;;;14.67;100.00;99612.25;4995295;28;20034;-91
2023/06/17 02:04:38;;;;;;;0.50;0.50;;;;;;;14.72;100.00;99614.38;4979736;28;20091;-90
2023/06/17 02:07:04;;;;;;;1.10;1.00;;;;;;;14.75;100.00;99607.88;4976181;28;20030;-90
2023/06/17 02:09:30;;;;;;;0.50;0.47;;;;;;;14.84;100.00;99613.38;4975944;28;20033;-92
2023/06/17 02:11:55;;;;;;;0.63;0.60;;;;;;;14.87;100.00;99618.00;4976176;28;20564;-91
2023/06/17 02:14:21;;;;;;;1.20;0.60;;;;;;;14.87;100.00;99606.84;4981242;28;20034;-90
2023/06/17 02:16:47;;;;;;;0.40;0.40;;;;;;;14.94;100.00;99614.06;5001165;28;20077;-90
2023/06/17 02:19:15;;;;;;;0.70;0.68;;;;;;;14.98;100.00;99620.25;4989236;28;20038;-90
2023/06/17 02:21:42;;;;;;;0.20;0.20;;;;;;;14.93;100.00;99613.31;4994130;28;20542;-90
2023/06/17 02:24:07;;;;;;;1.05;0.90;;;;;;;14.93;100.00;99616.09;4962124;28;20041;-91
2023/06/17 02:26:33;;;;;;;0.70;0.57;;;;;;;14.96;100.00;99622.00;5004536;28;20405;-90
2023/06/17 02:28:59;;;;;;;0.88;0.85;;;;;;;14.96;100.00;99625.56;4968282;28;20826;-90
2023/06/17 02:31:26;;;;;;;0.05;0.05;;;;;;;14.87;100.00;99604.06;4981108;28;20026;-91
2023/06/17 02:33:52;;;;;;;0.20;0.20;;;;;;;14.89;100.00;99607.13;4986077;28;20025;-91
2023/06/17 02:36:19;;;;;;;0.10;0.10;;;;;;;14.99;100.00;99618.25;4983593;28;20505;-90
2023/06/17 02:38:46;;;;;;;0.75;0.60;;;;;;;14.99;100.00;99623.81;4990480;28;20038;-90
2023/06/17 02:41:12;;;;;;;1.10;1.02;;;;;;;14.93;100.00;99621.69;4961760;28;20034;-91
2023/06/17 02:43:38;;;;;;;0.30;0.20;;;;;;;14.97;100.00;99629.09;4967024;28;20030;-90
2023/06/17 02:46:03;;;;;;;0.40;0.40;;;;;;;14.91;100.00;99618.59;4958640;28;20037;-90
2023/06/17 02:48:31;;;;;;;0.25;0.25;;;;;;;14.90;100.00;99628.22;4971616;28;20046;-90
2023/06/17 02:50:58;;;;;;;0.45;0.45;;;;;;;14.81;100.00;99619.13;4978222;28;20046;-90
2023/06/17 02:53:24;;;;;;;0.10;0.10;;;;;;;14.76;100.00;99623.34;4971862;28;20456;-91
2023/06/17 02:55:53;;;;;;;0.70;0.45;;;;;;;14.72;100.00;99622.00;4999334;28;20033;-91
2023/06/17 02:58:21;;;;;;;0.60;0.28;;;;;;;14.58;100.00;99606.72;4992083;28;20456;-91
2023/06/17 03:00:54;;;;;;;0.65;0.65;;;;;;;14.71;100.00;99631.63;4989664;28;20056;-90
2023/06/17 03:03:23;;;;;;;0.40;0.40;;;;;;;14.65;100.00;99633.50;5017497;23;20070;-89
2023/06/17 03:05:48;;;;;;;0.10;0.10;;;;;;;14.59;100.00;99627.03;5016510;28;20072;-90
2023/06/17 03:08:17;;;;;;;0.40;0.35;;;;;;;14.53;100.00;99626.91;5029738;28;20075;-90
2023/06/17 03:10:44;;;;;;;0.25;0.17;;;;;;;14.50;100.00;99621.50;5007905;28;20514;-90
2023/06/17 03:13:11;;;;;;;0.38;0.38;;;;;;;14.49;100.00;99629.09;5013463;28;20365;-90
2023/06/17 03:15:41;;;;;;;0.25;0.25;;;;;;;14.44;100.00;99632.53;5035586;28;20034;-90
2023/06/17 03:18:07;;;;;;;1.85;0.73;;;;;;;14.42;100.00;99615.50;5002873;28;20450;-90
2023/06/17 03:20:34;;;;;;;0.30;0.30;;;;;;;14.40;100.00;99618.75;5021098;28;20038;-89
2023/06/17 03:23:02;;;;;;;0.43;0.40;;;;;;;14.41;100.00;99625.13;5013132;28;20037;-90
2023/06/17 03:25:27;;;;;;;0.22;0.22;;;;;;;14.39;100.00;99622.03;5027615;28;20055;-89
2023/06/17 03:27:53;;;;;;;1.33;0.93;;;;;;;14.42;100.00;99621.09;5039516;28;20029;-91
2023/06/17 03:30:19;;;;;;;0.20;0.20;;;;;;;14.40;100.00;99626.34;5028166;28;20071;-89
2023/06/17 03:32:45;;;;;;;0.38;0.38;;;;;;;14.42;100.00;99633.03;5035542;28;20063;-89
2023/06/17 03:35:11;;;;;;;0.75;0.73;;;;;;;14.46;100.00;99635.63;5007438;28;20096;-88
2023/06/17 03:37:37;;;;;;;2.53;1.05;;;;;;;14.51;100.00;99646.16;4993085;28;20151;-89
2023/06/17 03:40:03;;;;;;;0.63;0.52;;;;;;;14.43;100.00;99631.00;5011152;28;20075;-89
2023/06/17 03:42:32;;;;;;;0.63;0.63;;;;;;;14.48;100.00;99635.91;5025561;28;20037;-89
2023/06/17 03:44:58;;;;;;;0.43;0.30;;;;;;;14.56;100.00;99648.28;5006200;28;20104;-89
2023/06/17 03:47:24;;;;;;;0.20;0.20;;;;;;;14.51;100.00;99635.00;5015128;28;20121;-90
2023/06/17 03:49:49;;;;;;;0.28;0.28;;;;;;;14.59;100.00;99641.78;5009162;28;20025;-90
2023/06/17 03:52:15;;;;;;;0.22;0.22;;;;;;;14.62;100.00;99640.81;5029082;28;20404;-90
2023/06/17 03:54:41;;;;;;;0.65;0.60;;;;;;;14.63;100.00;99639.59;4994779;28;20021;-89
2023/06/17 03:57:06;;;;;;;0.65;0.32;;;;;;;14.68;100.00;99638.91;5014891;28;20037;-89
2023/06/17 03:59:35;;;;;;;1.33;1.05;;;;;;;14.72;100.00;99650.66;4998609;28;20044;-90
2023/06/17 04:02:02;;;;;;;0.52;0.50;;;;;;;14.72;100.00;99639.50;5032897;28;20033;-90
2023/06/17 04:04:28;;;;;;;1.17;0.70;;;;;;;14.77;100.00;99646.47;5014461;28;20084;-90
2023/06/17 04:06:54;;;;;;;0.63;0.45;;;;;;;14.78;100.00;99643.19;5024200;28;20331;-90
2023/06/17 04:09:20;;;;;;;0.22;0.22;;;;;;;14.82;100.00;99635.41;5023067;28;20034;-89
2023/06/17 04:11:45;;;;;;;0.30;0.30;;;;;;;14.82;100.00;99646.59;5027838;28;20044;-90
2023/06/17 04:14:11;;;;;;;0.60;0.47;;;;;;;14.90;100.00;99647.78;5012128;28;20385;-89
2023/06/17 04:16:36;;;;;;;0.10;0.10;;;;;;;14.98;100.00;99661.38;5022065;28;20408;-89
2023/06/17 04:19:02;;;;;;;0.30;0.30;;;;;;;15.02;100.00;99656.38;5011012;28;20048;-90
2023/06/17 04:21:28;;;;;;;0.52;0.30;;;;;;;14.94;100.00;99642.78;5026818;28;20087;-88
2023/06/17 04:23:54;;;;;;;0.20;0.20;;;;;;;15.07;100.00;99659.28;5026533;28;20391;-88
2023/06/17 04:26:20;;;;;;;0.52;0.52;;;;;;;15.08;100.00;99655.25;5005138;28;20517;-88
2023/06/17 04:28:47;;;;;;;1.55;1.25;;;;;;;15.16;100.00;99661.25;5007291;28;20071;-90
2023/06/17 04:31:15;;;;;;;0.10;0.10;;;;;;;15.20;100.00;99662.63;5022001;28;20044;-90
2023/06/17 04:33:41;;;;;;;0.50;0.50;;;;;;;15.23;100.00;99658.09;5024553;28;20367;-89
2023/06/17 04:36:10;;;;;;;0.10;0.10;;;;;;;15.31;100.00;99664.84;5011042;28;20452;-87
2023/06/17 04:38:41;;;;;;;0.25;0.25;;;;;;;15.28;100.00;99657.44;5008750;28;20426;-88
2023/06/17 04:41:08;;;;;;;0.95;0.88;;;;;;;15.41;100.00;99666.31;5020859;28;20512;-88
2023/06/17 04:43:37;;;;;;;0.63;0.63;;;;;;;15.53;100.00;99672.94;5007648;28;20192;-88
2023/06/17 04:46:06;;;;;;;3.60;0.98;;;;;;;15.61;100.00;99668.50;5003675;28;20048;-88
2023/06/17 04:48:31;;;;;;;0.32;0.32;;;;;;;15.65;100.00;99669.84;5012515;28;20040;-88
2023/06/17 04:50:57;;;;;;;0.77;0.77;;;;;;;15.82;100.00;99679.31;5005729;28;20033;-88
2023/06/17 04:53:24;;;;;;;0.98;0.88;;;;;;;15.85;100.00;99672.75;4997201;28;20038;-88
2023/06/17 04:55:50;;;;;;;0.43;0.43;;;;;;;15.91;100.00;99675.66;5022059;28;20124;-88
2023/06/17 04:58:17;;;;;;;0.22;0.22;;;;;;;16.03;100.00;99682.22;4983315;28;20042;-88
2023/06/17 05:00:45;;;;;;;0.65;0.60;;;;;;;16.13;100.00;99675.28;5004498;28;20030;-89
2023/06/17 05:03:14;;;;;;;2.55;0.98;;;;;;;16.10;100.00;99665.03;5005755;28;20038;-89
2023/06/17 05:05:40;;;;;;;1.50;0.52;;;;;;;16.23;100.00;99665.50;5009091;28;20044;-88
2023/06/17 05:08:06;;;;;;;0.47;0.47;;;;;;;16.32;100.00;99665.41;5022434;28;20539;-89
2023/06/17 05:10:32;;;;;;;0.98;0.63;;;;;;;16.43;100.00;99670.38;5023699;28;20116;-89
2023/06/17 05:12:58;;;;;;;1.00;0.70;;;;;;;16.53;100.00;99675.41;4999530;28;20838;-89
2023/06/17 05:15:26;;;;;;;0.30;0.30;;;;;;;16.63;100.00;99679.63;5014793;28;20040;-88
2023/06/17 05:17:51;;;;;;;0.22;0.22;;;;;;;16.82;100.00;99687.81;5002843;28;20021;-88
2023/06/17 05:20:18;;;;;;;0.90;0.88;;;;;;;16.88;100.00;99697.81;5000264;28;20049;-89
2023/06/17 05:22:44;;;;;;;0.60;0.60;;;;;;;17.04;100.00;99690.88;5009387;28;20037;-89
2023/06/17 05:25:10;;;;;;;1.27;1.17;;;;;;;17.13;100.00;99690.75;5008527;28;20088;-88
2023/06/17 05:27:38;;;;;;;1.17;1.05;;;;;;;17.27;100.00;99699.09;4997827;28;20161;-89
2023/06/17 05:30:05;;;;;;;0.63;0.63;;;;;;;17.43;100.00;99699.81;5022861;28;20034;-89
2023/06/17 05:32:31;;;;;;;2.33;0.57;;;;;;;17.48;100.00;99691.44;5005797;28;20033;-90
2023/06/17 05:34:57;;;;;;;2.22;0.93;;;;;;;17.63;100.00;99682.97;5014292;28;20026;-89
2023/06/17 05:37:23;;;;;;;0.88;0.77;;;;;;;17.80;100.00;99695.13;5018736;28;20037;-90
2023/06/17 05:39:48;;;;;;;1.00;0.60;;;;;;;17.85;100.00;99700.03;5027471;28;20135;-91
2023/06/17 05:42:14;;;;;;;0.57;0.40;;;;;;;17.92;100.00;99684.78;4995002;28;20456;-90
2023/06/17 05:44:40;;;;;;;0.55;0.55;;;;;;;18.04;100.00;99709.63;5022905;28;20025;-90
2023/06/17 05:47:08;;;;;;;0.60;0.60;;;;;;;18.06;99.94;99686.69;5010436;28;20116;-91
2023/06/17 05:49:33;;;;;;;0.47;0.47;;;;;;;18.16;100.00;99691.63;5005363;28;20033;-89
2023/06/17 05:51:59;;;;;;;0.60;0.60;;;;;;;18.29;99.59;99694.03;5007613;28;20037;-90
2023/06/17 05:54:25;;;;;;;1.02;0.93;;;;;;;18.40;98.81;99680.06;4990404;28;20091;-89
2023/06/17 05:56:51;;;;;;;0.63;0.60;;;;;;;18.71;98.12;99695.41;5002075;28;20037;-90
2023/06/17 05:59:18;;;;;;;1.73;0.60;;;;;;;18.97;95.26;99699.63;5005911;28;20021;-89
2023/06/17 06:01:44;;;;;;;0.55;0.55;;;;;;;19.10;94.92;99687.94;5015316;28;20564;-90
2023/06/17 06:04:10;;;;;;;2.28;1.30;;;;;;;19.24;94.07;99698.25;5013827;28;20042;-89
2023/06/17 06:06:36;;;;;;;0.65;0.65;;;;;;;19.33;91.19;99700.81;5024300;28;20025;-90
2023/06/17 06:09:01;;;;;;;1.23;0.38;;;;;;;19.30;92.48;99693.41;5006107;28;20029;-90
2023/06/17 06:11:27;;;;;;;0.43;0.38;;;;;;;19.46;94.31;99678.66;5004362;28;20080;-90
2023/06/17 06:13:54;;;;;;;0.57;0.57;;;;;;;19.77;92.31;99691.03;5022592;28;20393;-90
2023/06/17 06:16:20;;;;;;;0.73;0.73;;;;;;;19.91;89.45;99687.22;5006941;28;20029;-90
2023/06/17 06:18:45;;;;;;;1.95;1.15;;;;;;;20.02;88.41;99696.44;4991462;28;20049;-89
2023/06/17 06:21:11;;;;;;;2.08;1.05;;;;;;;20.17;85.88;99682.13;5018962;28;20034;-90
2023/06/17 06:23:37;;;;;;;0.30;0.30;;;;;;;20.34;84.28;99687.78;5009363;28;20045;-90
2023/06/17 06:26:03;;;;;;;0.65;0.65;;;;;;;20.61;83.84;99694.66;4997604;28;20033;-89
2023/06/17 06:28:29;;;;;;;0.38;0.38;;;;;;;20.72;82.07;99680.56;5006220;28;20508;-89
2023/06/17 06:30:55;;;;;;;0.73;0.45;;;;;;;21.00;80.78;99691.75;4998856;28;20056;-89
2023/06/17 06:33:22;;;;;;;0.68;0.68;;;;;;;21.17;78.38;99672.75;4998601;28;20423;-89
2023/06/17 06:35:48;;;;;;;0.30;0.30;;;;;;;21.41;76.24;99681.38;4996471;28;20029;-89
2023/06/17 06:38:17;;;;;;;0.55;0.28;;;;;;;21.48;73.23;99696.97;5010017;28;20044;-89
2023/06/17 06:40:43;;;;;;;0.63;0.63;;;;;;;21.54;69.98;99692.09;5018860;28;20049;-89
2023/06/17 06:43:08;;;;;;;0.30;0.30;;;;;;;21.60;67.12;99687.19;5014786;28;20025;-89
2023/06/17 06:45:46;;;;;;;0.50;0.50;;;;;;;21.69;65.11;99692.53;5007887;28;20542;-89
2023/06/17 06:48:12;;;;;;;0.50;0.35;;;;;;;21.76;64.30;99691.97;5023200;28;20033;-90
2023/06/17 06:50:38;;;;;;;0.28;0.28;;;;;;;21.67;63.39;99681.78;5004567;28;20052;-89
2023/06/17 06:53:04;;;;;;;1.13;0.60;;;;;;;21.73;64.48;99696.59;5009415;28;20166;-91
2023/06/17 06:55:30;;;;;;;2.08;0.60;;;;;;;21.82;62.48;99692.69;5009552;28;20148;-90
2023/06/17 06:57:55;;;;;;;0.93;0.82;;;;;;;21.92;65.01;99688.28;4993268;28;20440;-90
2023/06/17 07:00:22;;;;;;;0.20;0.20;;;;;;;21.99;61.78;99686.97;5009538;28;20120;-90
2023/06/17 07:02:49;;;;;;;0.30;0.30;;;;;;;22.15;61.92;99689.69;5027308;28;20040;-90
2023/06/17 07:05:14;;;;;;;0.32;0.32;;;;;;;22.18;62.29;99680.16;5027574;28;20025;-90
2023/06/17 07:07:46;;;;;;;1.13;1.08;;;;;;;22.32;62.15;99683.91;5027014;28;20047;-90
2023/06/17 07:10:12;;;;;;;0.43;0.43;;;;;;;22.08;59.35;99684.56;5020733;28;20036;-90
2023/06/17 07:12:37;;;;;;;0.47;0.38;;;;;;;22.24;60.18;99689.34;5033935;28;20105;-90
2023/06/17 07:15:04;;;;;;;1.10;1.00;;;;;;;22.33;58.42;99694.66;5015978;28;20112;-89
2023/06/17 07:17:30;;;;;;;0.38;0.38;;;;;;;22.33;58.38;99686.19;5036934;28;20033;-90
2023/06/17 07:19:55;;;;;;;0.82;0.55;;;;;;;22.55;56.57;99688.06;5042070;28;20032;-89
2023/06/17 07:22:21;;;;;;;0.40;0.40;;;;;;;22.70;56.69;99693.31;5019640;28;20428;-89
2023/06/17 07:24:47;;;;;;;0.52;0.35;;;;;;;22.69;55.13;99672.00;5016875;28;20487;-89
2023/06/17 07:27:12;;;;;;;0.25;0.25;;;;;;;22.86;53.09;99686.72;4998296;28;20404;-91
2023/06/17 07:29:38;;;;;;;1.73;1.02;;;;;;;22.93;54.84;99682.56;5028366;28;20037;-90
2023/06/17 07:32:04;;;;;;;0.25;0.25;;;;;;;23.09;54.44;99684.44;5035832;28;20505;-91
2023/06/17 07:34:31;;;;;;;0.68;0.50;;;;;;;22.97;53.62;99695.09;5010144;28;20396;-89
2023/06/17 07:36:57;;;;;;;0.30;0.25;;;;;;;22.75;54.63;99684.03;5034350;28;20059;-90
2023/06/17 07:39:22;;;;;;;8.98;1.40;;;;;;;22.82;55.02;99700.41;5015052;28;20044;-90
2023/06/17 07:41:48;;;;;;;0.88;0.40;;;;;;;22.93;53.91;99685.41;5000741;28;20087;-91
2023/06/17 07:44:13;;;;;;;0.65;0.65;;;;;;;23.08;50.80;99688.56;4992804;28;20241;-89
2023/06/17 07:46:39;;;;;;;0.40;0.40;;;;;;;22.95;49.80;99677.91;5006006;28;20022;-91
2023/06/17 07:49:05;;;;;;;0.17;0.17;;;;;;;22.96;49.52;99678.66;5020795;28;20047;-91
2023/06/17 07:51:30;;;;;;;1.58;1.33;;;;;;;23.06;50.44;99668.50;5015975;28;20090;-90
2023/06/17 07:53:56;;;;;;;5.22;1.67;;;;;;;23.23;49.32;99664.19;5033098;28;20129;-91
2023/06/17 07:56:21;;;;;;;0.43;0.43;;;;;;;23.46;49.58;99673.19;5030943;28;20024;-89
2023/06/17 07:58:47;;;;;;;0.85;0.70;;;;;;;23.68;48.73;99649.47;5031381;28;20112;-91
2023/06/17 08:01:13;;;;;;;1.20;0.85;;;;;;;23.77;48.61;99657.56;5005151;28;20087;-90
2023/06/17 08:03:39;;;;;;;0.88;0.88;;;;;;;23.89;48.33;99661.78;5010846;28;20040;-91
2023/06/17 08:06:04;;;;;;;1.65;0.85;;;;;;;24.01;47.93;99668.78;5002359;28;20586;-91
2023/06/17 08:08:30;;;;;;;0.47;0.47;;;;;;;24.24;47.22;99668.44;4999618;28;20025;-91
2023/06/17 08:10:55;;;;;;;0.65;0.40;;;;;;;24.38;47.27;99672.88;5023255;28;20119;-92
2023/06/17 08:13:21;;;;;;;0.73;0.55;;;;;;;24.60;47.31;99673.22;4998927;28;20120;-91
2023/06/17 08:15:49;;;;;;;0.77;0.77;;;;;;;24.68;46.08;99669.75;5035741;28;20039;-90
2023/06/17 08:18:15;;;;;;;1.27;0.85;;;;;;;24.82;44.77;99680.56;5018412;28;20029;-91
2023/06/17 08:20:41;;;;;;;1.70;0.98;;;;;;;25.00;45.21;99665.53;5007495;28;20043;-90
2023/06/17 08:23:07;;;;;;;0.55;0.45;;;;;;;25.25;43.96;99680.25;5003560;28;20044;-91
2023/06/17 08:25:36;;;;;;;1.15;1.05;;;;;;;24.89;41.27;99694.13;5000820;28;20411;-91
2023/06/17 08:28:01;;;;;;;0.88;0.88;;;;;;;24.76;42.22;99696.91;4999323;28;20556;-92
2023/06/17 08:30:27;;;;;;;0.70;0.60;;;;;;;24.55;42.54;99681.81;5005177;28;20044;-92
2023/06/17 08:32:52;;;;;;;0.10;0.10;;;;;;;24.51;42.74;99692.72;5007354;28;20523;-92
2023/06/17 08:35:18;;;;;;;0.63;0.47;;;;;;;24.55;43.86;99676.16;4987402;28;20029;-92
2023/06/17 08:37:43;;;;;;;1.50;0.65;;;;;;;24.71;43.79;99677.19;4998126;28;20492;-91
2023/06/17 08:40:09;;;;;;;1.05;0.90;;;;;;;25.14;42.92;99679.72;4988247;28;20112;-91
2023/06/17 08:42:35;;;;;;;0.85;0.85;;;;;;;25.24;42.29;99680.78;4988459;28;20033;-91
2023/06/17 08:45:01;;;;;;;0.57;0.47;;;;;;;25.12;42.32;99676.66;5013097;28;20044;-91
2023/06/17 08:47:27;;;;;;;0.60;0.60;;;;;;;25.28;42.02;99684.06;5006808;28;20040;-92
2023/06/17 08:49:56;;;;;;;0.80;0.80;;;;;;;25.13;43.36;99681.78;5002443;28;20037;-91
2023/06/17 08:52:22;;;;;;;0.47;0.47;;;;;;;25.04;42.11;99694.34;5005889;28;20025;-93
2023/06/17 08:54:48;;;;;;;0.30;0.30;;;;;;;24.91;41.67;99691.50;5003126;28;20037;-92
2023/06/17 08:57:14;;;;;;;0.52;0.52;;;;;;;25.12;41.99;99693.69;5003742;28;20526;-93
2023/06/17 08:59:40;;;;;;;1.52;0.80;;;;;;;25.42;42.28;99682.75;5017864;28;20033;-92
2023/06/17 09:02:07;;;;;;;0.52;0.52;;;;;;;25.60;40.88;99681.84;5003574;28;20033;-91
2023/06/17 09:04:33;;;;;;;0.60;0.60;;;;;;;25.62;40.39;99687.00;4988520;28;20041;-90
2023/06/17 09:06:59;;;;;;;0.40;0.40;;;;;;;25.72;41.44;99690.91;5006015;28;20041;-92
2023/06/17 09:09:24;;;;;;;0.57;0.57;;;;;;;25.64;40.98;99682.28;4986995;28;20025;-90
2023/06/17 09:11:51;;;;;;;0.40;0.40;;;;;;;25.65;39.97;99678.13;5024586;28;20032;-91
2023/06/17 09:14:18;;;;;;;0.60;0.60;;;;;;;25.99;40.78;99678.91;5010969;28;20033;-91
2023/06/17 09:16:44;;;;;;;0.85;0.60;;;;;;;25.84;40.67;99681.56;5024719;28;20128;-91
2023/06/17 09:19:13;;;;;;;1.02;0.90;;;;;;;25.56;41.16;99684.28;5026032;28;20046;-90
2023/06/17 09:21:39;;;;;;;1.48;1.02;;;;;;;25.54;41.49;99672.72;4994587;28;20043;-90
2023/06/17 09:24:06;;;;;;;0.20;0.20;;;;;;;25.56;40.53;99670.06;5011831;28;20037;-93
2023/06/17 09:26:39;;;;;;;0.95;0.80;;;;;;;25.62;40.81;99662.19;5029727;28;20041;-96
2023/06/17 09:29:10;;;;;;;;;;;;;;;25.85;39.90;99691.63;5004301;28;20044;-95
2023/06/17 09:31:50;;;;;;;0.90;0.77;;;;;;;25.86;39.35;99681.03;5003284;28;19921;-94
2023/06/17 09:34:16;;;;;;;0.52;0.35;;;;;;;25.36;40.09;99690.59;5026025;28;20038;-93
2023/06/17 09:36:42;;;;;;;0.20;0.20;;;;;;;25.10;40.43;99668.72;5021613;28;20037;-93
2023/06/17 09:39:12;;;;;;;0.70;0.25;;;;;;;25.21;41.10;99674.16;4992739;28;20036;-93
2023/06/17 09:41:42;;;;;;;0.90;0.50;;;;;;;25.04;40.74;99688.66;5025833;28;20048;-94
2023/06/17 09:44:08;;;;;;;0.68;0.63;;;;;;;25.14;41.87;99659.84;5013096;28;20219;-93
2023/06/17 09:46:39;;;;;;;3.05;1.08;;;;;;;25.42;41.90;99668.56;5026360;28;20148;-95
2023/06/17 09:49:15;;;;;;;0.60;0.60;;;;;;;25.70;41.53;99667.97;4992841;28;20118;-95
2023/06/17 09:51:42;;;;;;;0.63;0.47;;;;;;;26.04;39.85;99676.50;5013336;28;20044;-95
2023/06/17 09:54:08;;;;;;;0.52;0.52;;;;;;;26.01;40.30;99669.81;5015735;28;20037;-94
2023/06/17 09:56:35;;;;;;;0.70;0.55;;;;;;;26.07;39.31;99683.91;4994923;28;20036;-94
2023/06/17 09:59:03;;;;;;;0.73;0.60;;;;;;;25.60;38.93;99670.50;5011051;28;20051;-93
2023/06/17 10:01:32;;;;;;;0.65;0.50;;;;;;;25.84;39.88;99675.88;5026793;28;20813;-93
2023/06/17 10:04:00;;;;;;;0.30;0.30;;;;;;;25.92;39.25;99662.53;5008552;28;20888;-94
2023/06/17 10:06:28;;;;;;;2.63;0.57;;;;;;;26.31;38.97;99678.66;5013938;28;20033;-90
2023/06/17 10:08:54;;;;;;;0.40;0.40;;;;;;;26.56;39.83;99672.63;5004929;28;20568;-91
2023/06/17 10:11:20;;;;;;;0.38;0.38;;;;;;;26.68;37.73;99674.63;5036173;28;20057;-91
2023/06/17 10:13:54;;;;;;;0.93;0.35;;;;;;;26.30;38.97;99676.38;5018673;28;20045;-90
2023/06/17 10:16:22;;;;;;;3.03;1.08;;;;;;;26.09;38.61;99669.88;5008178;28;20483;-90
2023/06/17 10:18:48;;;;;;;0.68;0.65;;;;;;;26.04;40.32;99668.72;5006906;28;20759;-92
2023/06/17 10:21:14;;;;;;;0.47;0.47;;;;;;;26.22;39.41;99673.47;5008778;28;20025;-90
2023/06/17 10:23:41;;;;;;;0.30;0.30;;;;;;;26.23;38.50;99677.84;5012160;28;20091;-91
2023/06/17 10:26:07;;;;;;;0.35;0.35;;;;;;;26.20;39.12;99666.81;5009734;28;20029;-91
2023/06/17 10:28:51;;;;;;;0.40;0.40;;;;;;;26.62;38.34;99679.69;4999171;28;20035;-91
2023/06/17 10:31:26;;;;;;;0.60;0.60;;;;;;;26.92;39.43;99675.56;5046376;28;20559;-92
2023/06/17 10:33:53;;;;;;;0.70;0.70;;;;;;;27.24;37.46;99661.69;5026161;28;20033;-91
2023/06/17 10:36:23;;;;;;;0.55;0.50;;;;;;;27.32;37.18;99679.59;5024460;28;20114;-91
2023/06/17 10:39:18;;;;;;;0.63;0.50;;;;;;;27.34;36.58;99671.22;4990710;28;20059;-91
2023/06/17 10:41:46;;;;;;;0.35;0.35;;;;;;;27.55;36.90;99669.06;5004748;28;20049;-92
2023/06/17 10:44:33;;;;;;;0.95;0.43;;;;;;;27.17;36.57;99673.81;5030559;28;20126;-90
2023/06/17 10:46:59;;;;;;;1.40;1.00;;;;;;;27.20;37.81;99672.69;5022792;28;20508;-92
2023/06/17 10:49:25;;;;;;;0.52;0.40;;;;;;;27.51;37.25;99650.81;5010820;28;20039;-91
2023/06/17 10:51:53;;;;;;;21.27;1.80;;;;;;;27.35;36.41;99658.53;5007545;28;20492;-90
2023/06/17 10:54:29;;;;;;;0.60;0.52;;;;;;;27.39;36.94;99661.78;4995540;28;20673;-91
2023/06/17 10:56:55;;;;;;;0.40;0.40;;;;;;;27.42;37.60;99660.63;5007953;28;20515;-90
2023/06/17 10:59:27;;;;;;;0.50;0.50;;;;;;;27.66;36.39;99663.03;5026565;28;20033;-91
2023/06/17 11:02:01;;;;;;;;;;;;;;;27.81;38.05;99668.03;5021817;28;20046;-90
2023/06/17 11:04:32;;;;;;;0.40;0.40;;;;;;;28.07;35.82;99655.53;4996425;28;20513;-90
2023/06/17 11:06:59;;;;;;;0.20;0.20;;;;;;;28.01;35.98;99649.25;4989527;28;20564;-91
2023/06/17 11:09:25;;;;;;;0.47;0.47;;;;;;;27.18;35.61;99663.94;4993734;28;20078;-91
2023/06/17 11:11:53;;;;;;;1.25;0.82;;;;;;;27.34;36.90;99662.69;5011844;28;20039;-90
2023/06/17 11:14:19;;;;;;;0.30;0.30;;;;;;;27.55;36.76;99663.38;5016367;28;20027;-90
2023/06/17 11:16:45;;;;;;;0.55;0.50;;;;;;;27.49;35.58;99654.25;5000107;28;20091;-91
2023/06/17 11:19:13;;;;;;;0.82;0.82;;;;;;;27.53;36.18;99666.03;5011206;28;20441;-91
2023/06/17 11:21:39;;;;;;;0.95;0.60;;;;;;;27.29;35.87;99667.25;5024392;28;20036;-90
2023/06/17 11:24:05;;;;;;;0.20;0.20;;;;;;;27.28;36.32;99662.88;4996579;28;20047;-90
2023/06/17 11:26:30;;;;;;;0.35;0.35;;;;;;;27.33;35.94;99669.72;4991870;28;20560;-90
2023/06/17 11:28:56;;;;;;;0.22;0.22;;;;;;;27.37;35.73;99664.44;4990009;28;20038;-89